Time;durP1;ratioP1;P1;durP2;ratioP2;P2;SDS_P1;SDS_P2;PMS_P1;PMS_P2;Temp;Humidity;BMP_temperature;BMP_pressure;BME280_temperature;BME280_humidity;BME280_pressure;Samples;Min_cycle;Max_cycle;Signal;HPM_P1;HPM_P2
2022/09/30 00:00:07;;;;;;;;;;;;;;;7.19;94.56;95988.41;30001;983;1876;-56
2022/09/30 00:00:38;;;;;;;;;;;;;;;7.22;94.79;95992.41;30001;983;1880;-56
2022/09/30 00:01:10;;;;;;;;;;;;;;;7.23;94.71;95994.81;30001;983;1876;-57
2022/09/30 00:01:41;;;;;;;;;;;;;;;7.25;94.66;95989.94;30001;983;1880;-56
2022/09/30 00:02:13;;;;;;;;;;;;;;;7.26;94.29;95988.03;30001;982;1876;-56
2022/09/30 00:02:44;;;;;;;;;;;;;;;7.28;94.36;95992.00;30001;982;1881;-56
2022/09/30 00:03:15;;;;;;;;;;;;;;;7.28;93.96;95999.31;30001;982;1876;-55
2022/09/30 00:03:48;;;;;;;;;;;;;;;7.28;93.90;95991.22;30001;982;1881;-56
2022/09/30 00:04:21;;;;;;;;;;;;;;;7.28;94.04;95986.63;30001;983;1862;-55
2022/09/30 00:04:52;;;;;;;;;;;;;;;7.28;93.91;95986.63;30001;983;1871;-57
2022/09/30 00:05:23;;;;;;;;;;;;;;;7.30;93.98;95989.03;30001;983;1876;-56
2022/09/30 00:05:56;;;;;;;;;;;;;;;7.29;93.96;95985.53;30001;983;1880;-56
2022/09/30 00:06:28;;;;;;;;;;;;;;;7.30;93.72;95987.13;30001;983;1876;-56
2022/09/30 00:06:59;;;;;;;;;;;;;;;7.31;93.78;95994.13;30001;983;1867;-56
2022/09/30 00:07:30;;;;;;;;;;;;;;;7.32;94.02;95978.75;30001;983;1867;-56
2022/09/30 00:08:02;;;;;;;;;;;;;;;7.34;93.83;95990.03;30001;983;1880;-56
2022/09/30 00:08:33;;;;;;;;;;;;;;;7.34;93.94;95985.44;30001;982;1876;-56
2022/09/30 00:09:04;;;;;;;;;;;;;;;7.35;94.20;95984.34;30001;982;1880;-56
2022/09/30 00:09:35;;;;;;;;;;;;;;;7.34;94.36;95982.75;30001;982;1876;-55
2022/09/30 00:10:07;;;;;;;;;;;;;;;7.35;94.27;95987.06;30001;982;1868;-55
2022/09/30 00:10:38;;;;;;;;;;;;;;;7.35;94.07;95981.66;30001;982;1868;-56
2022/09/30 00:11:16;;;;;;;;;;;;;;;7.36;94.62;95991.34;30001;982;1881;-56
2022/09/30 00:11:47;;;;;;;;;;;;;;;7.36;94.54;95983.25;30001;983;1876;-56
2022/09/30 00:12:18;;;;;;;;;;;;;;;7.36;94.84;95985.16;30001;983;1880;-56
2022/09/30 00:12:51;;;;;;;;;;;;;;;7.36;94.61;95983.25;30001;983;1876;-57
2022/09/30 00:13:22;;;;;;;;;;;;;;;7.36;94.42;95982.47;30001;983;1880;-56
2022/09/30 00:13:56;;;;;;;;;;;;;;;7.36;94.60;95979.75;30001;983;1876;-56
2022/09/30 00:14:27;;;;;;;;;;;;;;;7.37;94.67;95989.47;30001;983;1880;-56
2022/09/30 00:14:58;;;;;;;;;;;;;;;7.36;94.81;95980.56;30001;983;1876;-56
2022/09/30 00:15:29;;;;;;;;;;;;;;;7.36;94.75;95980.56;30001;983;1867;-57
2022/09/30 00:16:00;;;;;;;;;;;;;;;7.36;95.04;95987.84;30001;982;1867;-57
2022/09/30 00:16:33;;;;;;;;;;;;;;;7.36;95.37;95987.84;30001;982;1880;-59
2022/09/30 00:17:04;;;;;;;;;;;;;;;7.34;95.14;95982.75;30001;982;1876;-56
2022/09/30 00:17:35;;;;;;;;;;;;;;;7.34;95.05;95996.25;30001;982;1881;-57
2022/09/30 00:18:07;;;;;;;;;;;;;;;7.35;95.14;95987.06;30001;982;1876;-59
2022/09/30 00:18:39;;;;;;;;;;;;;;;7.35;95.15;95997.84;30001;982;1881;-59
2022/09/30 00:19:10;;;;;;;;;;;;;;;7.35;95.05;95997.84;30001;982;1876;-56
2022/09/30 00:19:41;;;;;;;;;;;;;;;7.36;95.00;95988.66;30001;983;1880;-56
2022/09/30 00:20:17;;;;;;;;;;;;;;;7.35;95.39;95987.06;30001;983;1862;-55
2022/09/30 00:20:48;;;;;;;;;;;;;;;7.36;95.42;95987.84;30001;983;1871;-57
2022/09/30 00:21:19;;;;;;;;;;;;;;;7.36;95.54;95988.66;30001;983;1876;-56
2022/09/30 00:21:52;;;;;;;;;;;;;;;7.37;95.59;95987.56;30001;983;1880;-55
2022/09/30 00:22:25;;;;;;;;;;;;;;;7.37;95.25;95984.84;30001;983;1876;-58
2022/09/30 00:22:56;;;;;;;;;;;;;;;7.38;95.44;95985.66;30001;983;1880;-59
2022/09/30 00:23:27;;;;;;;;;;;;;;;7.39;95.36;95990.75;30001;983;1837;-56
2022/09/30 00:23:59;;;;;;;;;;;;;;;7.38;95.15;95991.87;30001;964;1810;-59
2022/09/30 00:24:30;;;;;;;;;;;;;;;7.40;95.39;95994.28;30001;982;1876;-55
2022/09/30 00:25:01;;;;;;;;;;;;;;;7.40;95.79;95989.66;30001;982;1881;-56
2022/09/30 00:25:33;;;;;;;;;;;;;;;7.40;95.38;95995.06;30001;982;1863;-58
2022/09/30 00:26:11;;;;;;;;;;;;;;;7.40;95.23;96005.88;30001;982;1872;-56
2022/09/30 00:26:41;;;;;;;;;;;;;;;7.41;95.30;95995.88;30001;982;1876;-58
2022/09/30 00:27:17;;;;;;;;;;;;;;;7.42;95.41;95994.78;30001;986;1854;-56
2022/09/30 00:27:51;;;;;;;;;;;;;;;7.43;95.31;95992.87;30001;983;1867;-55
2022/09/30 00:28:22;;;;;;;;;;;;;;;7.43;95.51;95995.56;30001;983;1880;-55
2022/09/30 00:28:54;;;;;;;;;;;;;;;7.43;95.30;95993.69;30001;983;1876;-55
2022/09/30 00:29:25;;;;;;;;;;;;;;;7.44;95.50;95991.78;30001;983;1880;-55
2022/09/30 00:29:56;;;;;;;;;;;;;;;7.43;95.16;95993.69;30001;983;1876;-55
2022/09/30 00:30:28;;;;;;;;;;;;;;;7.43;95.33;95993.69;30001;983;1867;-56
2022/09/30 00:31:07;;;;;;;;;;;;;;;7.44;95.16;95994.47;30001;983;1867;-56
2022/09/30 00:31:38;;;;;;;;;;;;;;;7.44;95.34;95989.09;30001;982;1880;-55
2022/09/30 00:32:10;;;;;;;;;;;;;;;7.44;95.29;96000.69;30001;982;1863;-55
2022/09/30 00:32:41;;;;;;;;;;;;;;;7.45;95.53;95985.28;30001;982;1872;-57
2022/09/30 00:33:11;;;;;;;;;;;;;;;7.45;95.34;95993.38;30001;982;1876;-56
2022/09/30 00:33:43;;;;;;;;;;;;;;;7.46;95.24;95997.69;30001;982;1881;-55
2022/09/30 00:34:14;;;;;;;;;;;;;;;7.46;95.15;95992.28;30001;982;1863;-54
2022/09/30 00:34:45;;;;;;;;;;;;;;;7.46;95.23;95992.28;30001;983;1871;-56
2022/09/30 00:35:16;;;;;;;;;;;;;;;7.46;94.95;96000.41;30001;983;1876;-56
2022/09/30 00:35:47;;;;;;;;;;;;;;;7.46;95.10;95992.28;30001;983;1880;-57
2022/09/30 00:36:18;;;;;;;;;;;;;;;7.47;95.32;95999.28;30001;983;1876;-55
2022/09/30 00:36:55;;;;;;;;;;;;;;;7.47;95.59;95992.00;30001;983;1880;-55
2022/09/30 00:37:26;;;;;;;;;;;;;;;7.47;95.53;96002.00;30001;983;1876;-57
2022/09/30 00:37:58;;;;;;;;;;;;;;;7.47;95.66;96000.09;30001;983;1880;-56
2022/09/30 00:38:30;;;;;;;;;;;;;;;7.47;95.75;95999.28;30001;983;1863;-57
2022/09/30 00:39:03;;;;;;;;;;;;;;;7.47;95.58;96000.09;30001;982;1859;-55
2022/09/30 00:39:36;;;;;;;;;;;;;;;7.47;95.43;96005.50;30001;982;1876;-56
2022/09/30 00:40:10;;;;;;;;;;;;;;;7.47;95.49;96002.00;30001;982;1867;-60
2022/09/30 00:40:42;;;;;;;;;;;;;;;7.48;95.58;96003.59;30001;982;1868;-56
2022/09/30 00:41:13;;;;;;;;;;;;;;;7.48;95.43;95995.50;30001;983;1880;-55
2022/09/30 00:41:45;;;;;;;;;;;;;;;7.48;95.66;95995.50;30001;983;1875;-56
2022/09/30 00:42:18;;;;;;;;;;;;;;;7.48;95.63;96004.41;30001;983;1867;-55
2022/09/30 00:42:49;;;;;;;;;;;;;;;7.49;95.36;95997.09;30001;983;1867;-57
2022/09/30 00:43:40;;;;;;;;;;;;;;;7.50;95.87;96004.09;30001;983;1880;-55
2022/09/30 00:44:32;;;;;;;;;;;;;;;7.50;95.90;96001.41;30001;983;1876;-55
2022/09/30 00:45:04;;;;;;;;;;;;;;;7.49;95.97;96002.50;30001;983;1871;-57
2022/09/30 00:45:35;;;;;;;;;;;;;;;7.48;95.80;96000.91;30001;983;1876;-56
2022/09/30 00:46:15;;;;;;;;;;;;;;;7.49;95.94;96002.50;30001;983;1880;-55
2022/09/30 00:46:46;;;;;;;;;;;;;;;7.48;95.70;96003.59;30001;982;1876;-55
2022/09/30 00:47:46;;;;;;;;;;;;;;;7.47;95.74;96002.78;30001;982;1867;-55
2022/09/30 00:48:20;;;;;;;;;;;;;;;7.48;95.87;96000.91;30001;982;1863;-55
2022/09/30 00:48:52;;;;;;;;;;;;;;;7.48;96.21;96000.91;30001;983;1880;-55
2022/09/30 00:49:24;;;;;;;;;;;;;;;7.47;96.49;96000.09;30001;983;1875;-56
2022/09/30 00:50:00;;;;;;;;;;;;;;;7.47;96.30;96005.50;30001;983;1880;-56
2022/09/30 00:50:57;;;;;;;;;;;;;;;7.47;96.25;96000.09;30001;983;1863;-56
2022/09/30 00:51:40;;;;;;;;;;;;;;;7.48;96.29;96007.09;30001;983;1867;-55
2022/09/30 00:52:12;;;;;;;;;;;;;;;7.48;96.28;96007.09;30001;983;1876;-55
2022/09/30 00:52:44;;;;;;;;;;;;;;;7.48;96.36;96000.91;30001;983;1880;-55
2022/09/30 00:53:21;;;;;;;;;;;;;;;7.47;96.00;95999.28;30001;983;1876;-58
2022/09/30 00:53:56;;;;;;;;;;;;;;;7.48;96.33;96003.59;30001;982;1880;-58
2022/09/30 00:54:30;;;;;;;;;;;;;;;7.47;96.06;96004.69;30001;982;1876;-56
2022/09/30 00:55:03;;;;;;;;;;;;;;;7.48;96.28;96009.00;30001;982;1881;-55
2022/09/30 00:55:53;;;;;;;;;;;;;;;7.47;96.01;96004.69;30001;982;1863;-56
2022/09/30 00:56:26;;;;;;;;;;;;;;;7.48;96.37;96006.31;30001;983;1871;-56
2022/09/30 00:57:02;;;;;;;;;;;;;;;7.49;96.35;96010.59;30001;983;1875;-56
2022/09/30 00:57:35;;;;;;;;;;;;;;;7.48;96.50;96006.31;30001;983;1880;-56
2022/09/30 00:58:08;;;;;;;;;;;;;;;7.48;96.33;96004.41;30001;983;1876;-56
2022/09/30 00:58:43;;;;;;;;;;;;;;;7.49;96.05;96007.91;30001;983;1880;-56
2022/09/30 00:59:17;;;;;;;;;;;;;;;7.48;96.18;96004.41;30001;983;1876;-56
2022/09/30 00:59:50;;;;;;;;;;;;;;;7.48;96.28;96004.41;30001;983;1880;-56
2022/09/30 01:00:21;;;;;;;;;;;;;;;7.48;96.26;96009.00;30001;983;1876;-55
2022/09/30 01:00:56;;;;;;;;;;;;;;;7.48;96.12;96000.91;30001;983;1867;-55
2022/09/30 01:01:27;;;;;;;;;;;;;;;7.48;96.05;96009.00;30001;982;1867;-56
2022/09/30 01:01:59;;;;;;;;;;;;;;;7.48;96.24;96017.09;30001;982;1880;-60
2022/09/30 01:02:31;;;;;;;;;;;;;;;7.48;96.32;96017.09;30001;982;1876;-56
2022/09/30 01:03:03;;;;;;;;;;;;;;;7.48;96.41;96011.69;30001;982;1881;-57
2022/09/30 01:03:37;;;;;;;;;;;;;;;7.48;96.18;96006.31;30001;982;1876;-55
2022/09/30 01:04:10;;;;;;;;;;;;;;;7.47;96.31;96005.50;30001;983;1867;-56
2022/09/30 01:04:42;;;;;;;;;;;;;;;7.48;96.44;96006.31;30001;983;1867;-55
2022/09/30 01:05:13;;;;;;;;;;;;;;;7.48;96.45;96006.31;30001;983;1880;-56
2022/09/30 01:05:44;;;;;;;;;;;;;;;7.48;96.22;96006.31;30001;983;1876;-56
2022/09/30 01:06:17;;;;;;;;;;;;;;;7.47;96.40;96005.50;30001;983;1880;-56
2022/09/30 01:06:48;;;;;;;;;;;;;;;7.47;96.20;96004.69;30001;983;1876;-56
2022/09/30 01:07:20;;;;;;;;;;;;;;;7.49;96.38;96002.50;30001;983;1880;-56
2022/09/30 01:07:52;;;;;;;;;;;;;;;7.48;96.41;96007.09;30001;983;1876;-55
2022/09/30 01:08:24;;;;;;;;;;;;;;;7.48;96.39;96001.69;30001;983;1880;-56
2022/09/30 01:08:57;;;;;;;;;;;;;;;7.49;96.18;96005.19;30001;982;1876;-56
2022/09/30 01:09:30;;;;;;;;;;;;;;;7.49;96.38;96010.59;30001;982;1867;-55
2022/09/30 01:10:02;;;;;;;;;;;;;;;7.49;96.41;96006.00;30001;982;1868;-56
2022/09/30 01:10:33;;;;;;;;;;;;;;;7.51;96.59;96000.31;30001;982;1881;-56
2022/09/30 01:11:04;;;;;;;;;;;;;;;7.51;96.36;96009.22;30001;982;1876;-57
2022/09/30 01:11:35;;;;;;;;;;;;;;;7.52;96.60;96007.31;30001;983;1864;-56
2022/09/30 01:12:18;;;;;;;;;;;;;;;7.51;96.56;96000.31;30001;983;1876;-56
2022/09/30 01:12:49;;;;;;;;;;;;;;;7.52;96.66;96001.91;30001;983;1880;-55
2022/09/30 01:13:22;;;;;;;;;;;;;;;7.52;96.53;96004.63;30001;983;1876;-56
2022/09/30 01:13:55;;;;;;;;;;;;;;;7.53;96.29;96003.53;30001;983;1880;-57
2022/09/30 01:14:27;;;;;;;;;;;;;;;7.52;96.19;96007.31;30001;983;1876;-55
2022/09/30 01:14:59;;;;;;;;;;;;;;;7.54;96.20;96005.13;30001;983;1867;-55
2022/09/30 01:15:53;;;;;;;;;;;;;;;7.52;96.23;96008.13;30001;983;1867;-56
2022/09/30 01:16:37;;;;;;;;;;;;;;;7.54;96.70;96010.53;30001;982;1876;-56
2022/09/30 01:17:23;;;;;;;;;;;;;;;7.54;96.48;96005.13;30001;982;1876;-56
2022/09/30 01:18:00;;;;;;;;;;;;;;;7.53;96.53;96012.44;30001;982;1881;-56
2022/09/30 01:18:38;;;;;;;;;;;;;;;7.53;96.34;96008.91;30001;982;1876;-56
2022/09/30 01:19:31;;;;;;;;;;;;;;;7.53;96.62;96008.91;30001;983;1880;-56
2022/09/30 01:20:40;;;;;;;;;;;;;;;7.54;96.38;96010.53;30001;983;1858;-56
2022/09/30 01:21:49;;;;;;;;;;;;;;;7.54;96.50;96013.22;30001;983;1867;-56
2022/09/30 01:22:31;;;;;;;;;;;;;;;7.53;96.53;96014.31;30001;983;1872;-56
2022/09/30 01:23:23;;;;;;;;;;;;;;;7.54;96.73;96013.22;30001;983;1880;-55
2022/09/30 01:24:09;;;;;;;;;;;;;;;7.54;96.61;96015.91;30001;982;1876;-56
2022/09/30 01:24:58;;;;;;;;;;;;;;;7.54;96.59;96011.31;30001;982;1881;-56
2022/09/30 01:25:51;;;;;;;;;;;;;;;7.55;96.21;96012.13;30001;982;1854;-56
2022/09/30 01:26:52;;;;;;;;;;;;;;;7.55;96.52;96010.22;30001;982;1854;-56
2022/09/30 01:27:49;;;;;;;;;;;;;;;7.57;96.26;96009.94;30001;983;1858;-56
2022/09/30 01:28:38;;;;;;;;;;;;;;;7.58;96.35;96011.53;30001;983;1871;-56
2022/09/30 01:29:32;;;;;;;;;;;;;;;7.58;96.27;96014.25;30001;983;1867;-55
2022/09/30 01:30:09;;;;;;;;;;;;;;;7.57;96.39;96010.75;30001;983;1876;-56
2022/09/30 01:31:03;;;;;;;;;;;;;;;7.56;96.52;96017.25;30001;982;1876;-59
2022/09/30 01:32:03;;;;;;;;;;;;;;;7.55;96.47;96012.13;30001;982;1876;-55
2022/09/30 01:32:52;;;;;;;;;;;;;;;7.57;96.70;96012.63;30001;982;1859;-55
2022/09/30 01:33:31;;;;;;;;;;;;;;;7.55;96.42;96015.63;30001;975;1881;-55
2022/09/30 01:34:20;;;;;;;;;;;;;;;7.56;96.21;96013.72;30001;983;1876;-56
2022/09/30 01:35:17;;;;;;;;;;;;;;;7.56;96.09;96006.44;30001;983;1871;-59
2022/09/30 01:35:55;;;;;;;;;;;;;;;7.58;96.14;96008.84;30001;983;1871;-56
2022/09/30 01:36:46;;;;;;;;;;;;;;;7.59;96.31;96015.84;30001;983;1880;-56
2022/09/30 01:37:22;;;;;;;;;;;;;;;7.59;96.32;96013.16;30001;983;1871;-56
2022/09/30 01:38:14;;;;;;;;;;;;;;;7.59;96.06;96008.56;30001;983;1867;-56
2022/09/30 01:39:08;;;;;;;;;;;;;;;7.60;96.25;96009.34;30001;982;1854;-56
2022/09/30 01:39:52;;;;;;;;;;;;;;;7.61;96.36;96006.34;30001;982;1876;-56
2022/09/30 01:40:29;;;;;;;;;;;;;;;7.60;96.34;96003.94;30001;982;1876;-57
2022/09/30 01:41:09;;;;;;;;;;;;;;;7.61;96.57;96010.97;30001;982;1881;-55
2022/09/30 01:41:45;;;;;;;;;;;;;;;7.60;96.42;96009.34;30001;983;1876;-56
2022/09/30 01:42:35;;;;;;;;;;;;;;;7.61;96.41;96005.56;30001;983;1880;-56
2022/09/30 01:43:22;;;;;;;;;;;;;;;7.60;96.12;96001.25;30001;983;1858;-56
2022/09/30 01:44:16;;;;;;;;;;;;;;;7.60;96.27;96004.75;30001;983;1871;-56
2022/09/30 01:45:06;;;;;;;;;;;;;;;7.60;96.06;96001.25;30001;983;1876;-55
2022/09/30 01:45:58;;;;;;;;;;;;;;;7.58;96.13;96001.53;30001;983;1880;-55
2022/09/30 01:46:49;;;;;;;;;;;;;;;7.58;96.28;96003.44;30002;982;1872;-56
2022/09/30 01:47:25;;;;;;;;;;;;;;;7.58;96.35;96000.75;30002;982;1876;-56
2022/09/30 01:48:14;;;;;;;;;;;;;;;7.58;96.20;95996.16;30002;982;1876;-56
2022/09/30 01:48:59;;;;;;;;;;;;;;;7.58;96.34;96003.44;30002;983;1858;-56
2022/09/30 01:49:38;;;;;;;;;;;;;;;7.57;96.21;95999.13;30002;983;1867;-56
2022/09/30 01:50:29;;;;;;;;;;;;;;;7.58;96.03;96000.75;30002;983;1880;-55
2022/09/30 01:51:04;;;;;;;;;;;;;;;7.59;96.00;96007.75;30002;983;1871;-57
2022/09/30 01:51:44;;;;;;;;;;;;;;;7.59;96.31;96007.75;30002;983;1880;-56
2022/09/30 01:52:20;;;;;;;;;;;;;;;7.60;96.18;96006.66;30002;983;1876;-55
2022/09/30 01:53:23;;;;;;;;;;;;;;;7.59;96.20;96008.56;30002;983;1880;-55
2022/09/30 01:53:58;;;;;;;;;;;;;;;7.61;96.18;96010.97;30002;982;1859;-55
2022/09/30 01:54:35;;;;;;;;;;;;;;;7.61;96.20;96017.16;30002;982;1872;-55
2022/09/30 01:55:10;;;;;;;;;;;;;;;7.60;95.88;96012.84;30002;982;1876;-56
2022/09/30 01:55:49;;;;;;;;;;;;;;;7.61;96.02;96016.34;30002;984;1871;-56
2022/09/30 01:56:40;;;;;;;;;;;;;;;7.61;95.66;96019.84;30002;983;1880;-56
2022/09/30 01:57:20;;;;;;;;;;;;;;;7.62;95.75;96017.97;30002;983;1871;-55
2022/09/30 01:58:07;;;;;;;;;;;;;;;7.62;95.33;96018.72;30002;983;1880;-56
2022/09/30 01:58:49;;;;;;;;;;;;;;;7.61;95.35;96022.56;30002;983;1876;-57
2022/09/30 01:59:24;;;;;;;;;;;;;;;7.61;95.30;96019.06;30002;983;1867;-57
2022/09/30 02:00:03;;;;;;;;;;;;;;;7.64;95.32;96019.25;30002;983;1867;-57
2022/09/30 02:00:36;;;;;;;;;;;;;;;7.66;94.30;96014.34;30002;983;1880;-59
2022/09/30 02:01:13;;;;;;;;;;;;;;;7.68;93.97;96019.47;30002;982;1876;-57
2022/09/30 02:01:48;;;;;;;;;;;;;;;7.67;94.13;96015.16;30002;982;1881;-56
2022/09/30 02:02:27;;;;;;;;;;;;;;;7.67;94.15;96024.06;30002;982;1876;-56
2022/09/30 02:03:01;;;;;;;;;;;;;;;7.66;93.99;96029.75;30002;982;1881;-57
2022/09/30 02:03:36;;;;;;;;;;;;;;;7.67;94.40;96020.56;30002;983;1875;-56
2022/09/30 02:04:11;;;;;;;;;;;;;;;7.66;94.14;96022.44;30002;983;1867;-57
2022/09/30 02:04:51;;;;;;;;;;;;;;;7.65;94.39;96022.75;30002;983;1867;-57
2022/09/30 02:05:26;;;;;;;;;;;;;;;7.63;94.09;96024.94;30002;983;1867;-56
2022/09/30 02:06:01;;;;;;;;;;;;;;;7.63;94.27;96025.75;30002;983;1867;-55
2022/09/30 02:06:36;;;;;;;;;;;;;;;7.63;94.18;96030.34;30002;983;1880;-55
2022/09/30 02:07:15;;;;;;;;;;;;;;;7.65;94.07;96028.94;30002;983;1863;-55
2022/09/30 02:08:05;;;;;;;;;;;;;;;7.66;93.74;96030.56;30002;983;1872;-56
2022/09/30 02:08:49;;;;;;;;;;;;;;;7.68;93.74;96032.94;30002;982;1867;-56
2022/09/30 02:09:35;;;;;;;;;;;;;;;7.66;93.21;96029.75;30002;982;1881;-56
2022/09/30 02:10:16;;;;;;;;;;;;;;;7.63;93.25;96033.03;30002;982;1876;-55
2022/09/30 02:10:59;;;;;;;;;;;;;;;7.61;93.40;96037.94;30002;982;1868;-55
2022/09/30 02:11:37;;;;;;;;;;;;;;;7.60;93.66;96039.06;30002;983;1867;-57
2022/09/30 02:12:12;;;;;;;;;;;;;;;7.56;93.44;96035.34;30002;983;1867;-56
2022/09/30 02:12:47;;;;;;;;;;;;;;;7.56;93.92;96035.34;30002;983;1867;-58
2022/09/30 02:13:21;;;;;;;;;;;;;;;7.56;93.89;96046.13;30002;983;1880;-56
2022/09/30 02:14:12;;;;;;;;;;;;;;;7.56;94.21;96044.22;30002;983;1876;-57
2022/09/30 02:14:47;;;;;;;;;;;;;;;7.53;93.94;96042.12;30002;983;1876;-56
2022/09/30 02:15:22;;;;;;;;;;;;;;;7.53;94.22;96049.41;30002;982;1876;-56
2022/09/30 02:15:55;;;;;;;;;;;;;;;7.54;94.37;96048.31;30002;982;1867;-55
2022/09/30 02:16:30;;;;;;;;;;;;;;;7.52;94.75;96045.09;30002;982;1854;-57
2022/09/30 02:17:24;;;;;;;;;;;;;;;7.51;94.63;96043.50;30002;982;1881;-56
2022/09/30 02:17:57;;;;;;;;;;;;;;;7.49;94.96;96038.41;30002;982;1876;-56
2022/09/30 02:18:36;;;;;;;;;;;;;;;7.49;94.70;96040.28;30002;983;1880;-55
2022/09/30 02:19:28;;;;;;;;;;;;;;;7.50;95.06;96042.69;30002;983;1876;-57
2022/09/30 02:20:00;;;;;;;;;;;;;;;7.52;94.85;96037.00;30002;983;1875;-56
2022/09/30 02:20:35;;;;;;;;;;;;;;;7.56;94.74;96041.53;30002;983;1876;-55
2022/09/30 02:21:08;;;;;;;;;;;;;;;7.62;93.81;96031.47;30002;983;1871;-55
2022/09/30 02:21:42;;;;;;;;;;;;;;;7.62;93.42;96031.47;30002;983;1871;-56
2022/09/30 02:22:27;;;;;;;;;;;;;;;7.60;93.23;96036.34;30002;983;1884;-56
2022/09/30 02:23:24;;;;;;;;;;;;;;;7.59;93.37;96037.44;30002;982;1880;-55
2022/09/30 02:24:04;;;;;;;;;;;;;;;7.54;93.53;96037.53;30002;982;1876;-55
2022/09/30 02:24:36;;;;;;;;;;;;;;;7.52;94.10;96045.91;30002;982;1885;-55
2022/09/30 02:25:09;;;;;;;;;;;;;;;7.50;94.18;96045.41;30002;982;1881;-56
2022/09/30 02:25:44;;;;;;;;;;;;;;;7.50;94.61;96041.91;30002;982;1885;-55
2022/09/30 02:26:21;;;;;;;;;;;;;;;7.48;94.33;96050.28;30002;983;1867;-56
2022/09/30 02:26:53;;;;;;;;;;;;;;;7.48;94.68;96044.09;30002;983;1862;-56
2022/09/30 02:27:30;;;;;;;;;;;;;;;7.47;94.75;96037.09;30002;983;1880;-55
2022/09/30 02:28:07;;;;;;;;;;;;;;;7.45;94.87;96040.06;30002;983;1884;-55
2022/09/30 02:28:41;;;;;;;;;;;;;;;7.44;94.61;96043.06;30002;983;1880;-55
2022/09/30 02:29:20;;;;;;;;;;;;;;;7.47;94.50;96047.88;30002;983;1885;-55
2022/09/30 02:29:55;;;;;;;;;;;;;;;7.49;94.11;96046.50;30002;983;1880;-56
2022/09/30 02:30:27;;;;;;;;;;;;;;;7.56;93.95;96051.53;30002;982;1885;-56
2022/09/30 02:31:00;;;;;;;;;;;;;;;7.57;93.56;96042.34;30002;982;1867;-56
2022/09/30 02:31:33;;;;;;;;;;;;;;;7.55;93.35;96048.03;30002;982;1876;-55
2022/09/30 02:32:08;;;;;;;;;;;;;;;7.54;93.14;96048.31;30002;982;1881;-56
2022/09/30 02:32:46;;;;;;;;;;;;;;;7.51;93.59;96048.91;30002;982;1885;-58
2022/09/30 02:33:24;;;;;;;;;;;;;;;7.46;93.71;96048.97;30002;982;1881;-56
2022/09/30 02:34:18;;;;;;;;;;;;;;;7.43;94.23;96052.25;30002;983;1884;-56
2022/09/30 02:35:04;;;;;;;;;;;;;;;7.39;94.43;96050.12;30002;983;1875;-56
2022/09/30 02:35:38;;;;;;;;;;;;;;;7.36;94.63;96050.72;30002;983;1884;-56
2022/09/30 02:36:22;;;;;;;;;;;;;;;7.36;94.69;96052.63;30002;983;1867;-57
2022/09/30 02:37:07;;;;;;;;;;;;;;;7.35;94.62;96057.22;30002;983;1863;-56
2022/09/30 02:37:41;;;;;;;;;;;;;;;7.33;94.94;96054.00;30002;983;1880;-56
2022/09/30 02:38:17;;;;;;;;;;;;;;;7.34;95.21;96054.81;30001;982;1885;-56
2022/09/30 02:38:54;;;;;;;;;;;;;;;7.34;95.00;96049.41;30001;982;1881;-56
2022/09/30 02:39:43;;;;;;;;;;;;;;;7.32;95.31;96052.41;30001;982;1885;-56
2022/09/30 02:40:52;;;;;;;;;;;;;;;7.33;95.45;96054.00;30002;982;1872;-56
2022/09/30 02:41:25;;;;;;;;;;;;;;;7.34;95.42;96054.81;30001;983;1880;-56
2022/09/30 02:42:01;;;;;;;;;;;;;;;7.34;95.40;96058.31;30001;983;1867;-56
2022/09/30 02:42:32;;;;;;;;;;;;;;;7.34;95.54;96052.91;30001;983;1876;-56
2022/09/30 02:43:04;;;;;;;;;;;;;;;7.37;95.44;96054.22;30001;983;1880;-57
2022/09/30 02:43:37;;;;;;;;;;;;;;;7.38;95.53;96059.34;30001;983;1884;-56
2022/09/30 02:44:08;;;;;;;;;;;;;;;7.37;95.44;96063.13;30001;983;1880;-56
2022/09/30 02:44:39;;;;;;;;;;;;;;;7.36;95.35;96060.72;30001;983;1884;-56
2022/09/30 02:45:15;;;;;;;;;;;;;;;7.34;95.31;96055.63;30001;983;1880;-58
2022/09/30 02:46:07;;;;;;;;;;;;;;;7.32;95.64;96063.19;30001;982;1885;-59
2022/09/30 02:47:01;;;;;;;;;;;;;;;7.31;95.72;96060.78;30001;982;1872;-56
2022/09/30 02:47:48;;;;;;;;;;;;;;;7.29;95.45;96061.06;30001;982;1867;-56
2022/09/30 02:48:33;;;;;;;;;;;;;;;7.29;95.94;96062.97;30001;983;1871;-55
2022/09/30 02:49:27;;;;;;;;;;;;;;;7.29;95.84;96061.06;30001;983;1884;-56
2022/09/30 02:50:08;;;;;;;;;;;;;;;7.28;96.37;96054.06;30001;983;1862;-56
2022/09/30 02:50:51;;;;;;;;;;;;;;;7.27;96.10;96057.91;30001;983;1862;-58
2022/09/30 02:51:51;;;;;;;;;;;;;;;7.26;96.35;96053.59;30001;983;1880;-56
2022/09/30 02:52:31;;;;;;;;;;;;;;;7.22;96.35;96057.97;30001;983;1867;-56
2022/09/30 02:53:21;;;;;;;;;;;;;;;7.19;96.81;96053.16;30001;982;1871;-56
2022/09/30 02:54:15;;;;;;;;;;;;;;;7.17;96.84;96060.72;30001;982;1880;-56
2022/09/30 02:54:58;;;;;;;;;;;;;;;7.18;97.24;96059.63;30001;982;1863;-58
2022/09/30 02:55:57;;;;;;;;;;;;;;;7.17;97.23;96055.34;30001;983;1875;-56
2022/09/30 02:57:00;;;;;;;;;;;;;;;7.18;96.92;96065.03;30001;983;1862;-59
2022/09/30 02:57:41;;;;;;;;;;;;;;;7.17;96.97;96060.72;30001;983;1871;-56
2022/09/30 02:58:15;;;;;;;;;;;;;;;7.16;97.39;96059.13;30001;983;1880;-57
2022/09/30 02:58:48;;;;;;;;;;;;;;;7.16;97.47;96063.72;30001;983;1884;-56
2022/09/30 02:59:21;;;;;;;;;;;;;;;7.14;97.33;96061.31;30001;982;1867;-56
2022/09/30 02:59:52;;;;;;;;;;;;;;;7.14;97.52;96066.69;30001;983;1876;-56
2022/09/30 03:00:23;;;;;;;;;;;;;;;7.14;97.12;96065.91;30001;983;1880;-56
2022/09/30 03:00:57;;;;;;;;;;;;;;;7.14;97.41;96066.69;30001;982;1885;-56
2022/09/30 03:01:28;;;;;;;;;;;;;;;7.14;97.28;96066.69;30001;982;1881;-56
2022/09/30 03:02:00;;;;;;;;;;;;;;;7.15;97.63;96068.31;30001;982;1885;-56
2022/09/30 03:02:31;;;;;;;;;;;;;;;7.14;97.29;96066.69;30001;982;1881;-56
2022/09/30 03:03:06;;;;;;;;;;;;;;;7.15;97.58;96072.91;30001;983;1884;-56
2022/09/30 03:04:03;;;;;;;;;;;;;;;7.14;97.21;96069.41;30001;983;1880;-56
2022/09/30 03:04:35;;;;;;;;;;;;;;;7.13;97.25;96069.69;30001;983;1867;-56
2022/09/30 03:05:07;;;;;;;;;;;;;;;7.13;97.26;96065.09;30001;983;1871;-59
2022/09/30 03:05:38;;;;;;;;;;;;;;;7.14;97.27;96066.69;30001;983;1884;-56
2022/09/30 03:06:10;;;;;;;;;;;;;;;7.13;97.21;96067.78;30001;962;1901;-56
2022/09/30 03:06:41;;;;;;;;;;;;;;;7.13;97.11;96073.19;30001;983;1885;-56
2022/09/30 03:07:13;;;;;;;;;;;;;;;7.14;97.42;96071.28;30001;983;1880;-56
2022/09/30 03:07:43;;;;;;;;;;;;;;;7.14;97.44;96072.09;30001;983;1885;-57
2022/09/30 03:08:14;;;;;;;;;;;;;;;7.14;97.27;96072.09;30001;982;1880;-55
2022/09/30 03:08:46;;;;;;;;;;;;;;;7.13;97.50;96073.19;30001;982;1885;-56
2022/09/30 03:09:17;;;;;;;;;;;;;;;7.14;97.34;96080.19;30001;982;1880;-56
2022/09/30 03:09:48;;;;;;;;;;;;;;;7.13;97.54;96081.28;30001;982;1872;-56
2022/09/30 03:10:19;;;;;;;;;;;;;;;7.14;97.28;96082.09;30001;982;1872;-56
2022/09/30 03:10:51;;;;;;;;;;;;;;;7.14;97.52;96071.28;30001;983;1884;-56
2022/09/30 03:11:24;;;;;;;;;;;;;;;7.14;97.35;96082.87;30001;983;1880;-56
2022/09/30 03:12:02;;;;;;;;;;;;;;;7.15;97.25;96081.78;30001;983;1884;-57
2022/09/30 03:12:50;;;;;;;;;;;;;;;7.14;97.30;96074.78;30001;983;1880;-56
2022/09/30 03:13:58;;;;;;;;;;;;;;;7.13;97.29;96086.69;30001;983;1885;-56
2022/09/30 03:14:38;;;;;;;;;;;;;;;7.13;97.39;96085.88;30001;983;1876;-56
2022/09/30 03:16:34;;;;;;;;;;;;;;;7.10;97.52;96084.56;89988;930;16000;-57
2022/09/30 03:17:40;;;;;;;;;;;;;;;7.09;97.42;96082.94;30001;982;1869;-54
2022/09/30 03:18:31;;;;;;;;;;;;;;;7.09;97.49;96088.34;30001;982;1851;-56
2022/09/30 03:19:31;;;;;;;;;;;;;;;7.09;97.87;96085.66;30001;982;1877;-55
2022/09/30 03:20:31;;;;;;;;;;;;;;;7.10;97.86;96084.56;30001;983;1872;-56
2022/09/30 03:21:08;;;;;;;;;;;;;;;7.10;98.34;96089.94;30001;983;1876;-56
2022/09/30 03:21:51;;;;;;;;;;;;;;;7.10;98.11;96089.94;30001;983;1876;-56
2022/09/30 03:22:59;;;;;;;;;;;;;;;7.09;98.39;96084.84;30001;983;1868;-56
2022/09/30 03:23:53;;;;;;;;;;;;;;;7.09;98.44;96084.84;30001;983;1864;-56
2022/09/30 03:24:45;;;;;;;;;;;;;;;7.09;98.87;96087.53;30001;983;1877;-55
2022/09/30 03:25:41;;;;;;;;;;;;;;;7.07;99.02;96083.25;30001;982;1859;-56
2022/09/30 03:26:47;;;;;;;;;;;;;;;7.07;99.08;96082.44;30001;982;1873;-59
2022/09/30 03:27:41;;;;;;;;;;;;;;;7.09;98.54;96095.62;30001;983;1872;-55
2022/09/30 03:28:31;;;;;;;;;;;;;;;7.10;98.75;96092.66;30001;983;1876;-56
2022/09/30 03:29:09;;;;;;;;;;;;;;;7.11;98.50;96094.25;30001;983;1868;-58
2022/09/30 03:30:10;;;;;;;;;;;;;;;7.11;98.45;96093.47;30001;983;1881;-56